Time;durP1;ratioP1;P1;durP2;ratioP2;P2;SDS_P1;SDS_P2;PMS_P1;PMS_P2;Temp;Humidity;BMP_temperature;BMP_pressure;BME280_temperature;BME280_humidity;BME280_pressure;Samples;Min_cycle;Max_cycle;Signal;HPM_P1;HPM_P2
2023/01/25 00:01:21;;;;;;;46.13;22.60;;;4.10;99.90;;;;;;5062558;28;20032;-69
2023/01/25 00:03:47;;;;;;;47.55;22.08;;;4.10;99.90;;;;;;5063833;28;20025;-69
2023/01/25 00:06:12;;;;;;;46.28;22.73;;;4.10;99.90;;;;;;5062271;28;20041;-69
2023/01/25 00:08:38;;;;;;;49.40;22.35;;;4.10;99.90;;;;;;5064213;28;20100;-69
2023/01/25 00:11:04;;;;;;;48.13;22.15;;;4.00;99.90;;;;;;5064383;28;20120;-69
2023/01/25 00:13:29;;;;;;;48.58;22.10;;;4.00;99.90;;;;;;5060598;28;20161;-69
2023/01/25 00:16:03;;;;;;;50.65;22.13;;;4.00;99.90;;;;;;5074016;28;20063;-69
2023/01/25 00:18:29;;;;;;;45.83;23.05;;;4.00;99.90;;;;;;5072477;28;20131;-69
2023/01/25 00:20:54;;;;;;;50.40;22.73;;;4.00;99.90;;;;;;5073623;28;20112;-69
2023/01/25 00:23:20;;;;;;;46.88;21.73;;;3.90;99.90;;;;;;5073890;28;20029;-69
2023/01/25 00:25:45;;;;;;;46.65;20.90;;;3.90;99.90;;;;;;5073229;28;20025;-69
2023/01/25 00:28:11;;;;;;;45.63;21.58;;;3.90;99.90;;;;;;5074037;28;20082;-69
2023/01/25 00:30:36;;;;;;;49.92;23.25;;;3.90;99.90;;;;;;5074286;28;20037;-69
2023/01/25 00:33:16;;;;;;;46.00;22.08;;;3.90;99.90;;;;;;5073924;28;20032;-69
2023/01/25 00:35:43;;;;;;;51.25;24.23;;;3.90;99.90;;;;;;5072137;28;20135;-69
2023/01/25 00:38:28;;;;;;;50.22;22.77;;;3.90;99.90;;;;;;5054190;28;20033;-69
2023/01/25 00:40:54;;;;;;;48.53;21.48;;;3.90;99.90;;;;;;5059035;28;20025;-69
2023/01/25 00:43:19;;;;;;;52.35;24.20;;;3.90;99.90;;;;;;5073972;28;20033;-69
2023/01/25 00:45:45;;;;;;;48.53;23.05;;;3.90;99.90;;;;;;5073854;28;20036;-69
2023/01/25 00:48:10;;;;;;;49.10;21.92;;;3.90;99.90;;;;;;5073303;28;20082;-69
2023/01/25 00:50:37;;;;;;;52.15;23.48;;;3.90;99.90;;;;;;5072537;28;20028;-69
2023/01/25 00:53:02;;;;;;;48.70;21.95;;;3.90;99.90;;;;;;5067402;28;20090;-70
2023/01/25 00:55:28;;;;;;;49.10;23.27;;;3.90;99.90;;;;;;5071308;28;20364;-69
2023/01/25 00:57:53;;;;;;;48.10;22.52;;;3.90;99.90;;;;;;5058233;28;20033;-69
2023/01/25 01:00:19;;;;;;;51.40;23.63;;;3.90;99.90;;;;;;5073382;28;20046;-69
2023/01/25 01:02:45;;;;;;;47.85;22.02;;;3.90;99.90;;;;;;5060840;28;20029;-69
2023/01/25 01:05:11;;;;;;;47.63;22.17;;;3.90;99.90;;;;;;5069363;28;20035;-70
2023/01/25 01:07:37;;;;;;;48.60;22.48;;;3.90;99.90;;;;;;5055779;28;20127;-71
2023/01/25 01:10:03;;;;;;;51.03;23.35;;;3.90;99.90;;;;;;5059667;28;20118;-71
2023/01/25 01:12:28;;;;;;;55.28;23.33;;;3.90;99.90;;;;;;5072892;28;20040;-71
2023/01/25 01:14:55;;;;;;;53.83;24.52;;;3.90;99.90;;;;;;5041542;28;20029;-71
2023/01/25 01:17:21;;;;;;;51.45;23.05;;;3.90;99.90;;;;;;5069031;28;20460;-69
2023/01/25 01:19:47;;;;;;;51.08;24.52;;;3.90;99.90;;;;;;5053460;28;20079;-69
2023/01/25 01:22:12;;;;;;;44.67;20.80;;;3.90;99.90;;;;;;5060274;28;20032;-70
2023/01/25 01:24:38;;;;;;;49.42;22.58;;;3.80;99.90;;;;;;5061083;28;20037;-69
2023/01/25 01:27:03;;;;;;;53.08;23.10;;;3.80;99.90;;;;;;5049877;28;20036;-69
2023/01/25 01:29:29;;;;;;;48.10;22.13;;;3.80;99.90;;;;;;5056277;28;20034;-69
2023/01/25 01:31:55;;;;;;;52.38;23.25;;;3.90;99.90;;;;;;5067519;28;20044;-69
2023/01/25 01:34:20;;;;;;;50.38;22.20;;;3.90;99.90;;;;;;5061939;28;20060;-69
2023/01/25 01:36:47;;;;;;;52.42;23.27;;;3.90;99.90;;;;;;5059912;28;20643;-70
2023/01/25 01:39:13;;;;;;;52.53;24.20;;;4.00;99.90;;;;;;5068942;28;20032;-71
2023/01/25 01:41:39;;;;;;;49.60;22.55;;;4.00;99.90;;;;;;5056117;28;20480;-70
2023/01/25 01:44:05;;;;;;;54.88;23.33;;;4.00;99.90;;;;;;5065567;28;20109;-69
2023/01/25 01:46:39;;;;;;;53.35;24.40;;;4.00;99.90;;;;;;5062967;28;20035;-69
2023/01/25 01:49:10;;;;;;;51.92;24.10;;;4.00;99.90;;;;;;5072293;28;20056;-70
2023/01/25 01:51:58;;;;;;;54.42;24.70;;;4.00;99.90;;;;;;5068837;28;20151;-69
2023/01/25 01:54:27;;;;;;;58.42;26.13;;;4.00;99.90;;;;;;5057476;28;20067;-70
2023/01/25 01:56:55;;;;;;;56.17;25.55;;;4.00;99.90;;;;;;5068680;28;20515;-69
2023/01/25 01:59:26;;;;;;;55.33;26.20;;;4.00;99.90;;;;;;5057867;28;20085;-69
2023/01/25 02:01:53;;;;;;;55.37;24.20;;;3.90;99.90;;;;;;5063230;28;20480;-69
2023/01/25 02:04:21;;;;;;;54.78;24.77;;;3.90;99.90;;;;;;5059511;28;20135;-69
2023/01/25 02:06:54;;;;;;;53.38;25.48;;;3.90;99.90;;;;;;5054191;28;20029;-69
2023/01/25 02:09:22;;;;;;;53.95;24.48;;;3.90;99.90;;;;;;5067629;28;20461;-69
2023/01/25 02:11:50;;;;;;;54.50;24.33;;;4.00;99.90;;;;;;5062410;28;20048;-69
2023/01/25 02:14:16;;;;;;;51.88;24.30;;;4.00;99.90;;;;;;5069321;28;20024;-69
2023/01/25 02:16:43;;;;;;;54.47;25.27;;;3.90;99.90;;;;;;5058070;28;20430;-69
2023/01/25 02:19:15;;;;;;;55.65;25.08;;;3.90;99.90;;;;;;5055448;28;20397;-69
2023/01/25 02:21:44;;;;;;;58.13;25.40;;;3.90;99.90;;;;;;5064685;28;20037;-69
2023/01/25 02:24:19;;;;;;;52.78;23.80;;;3.80;99.90;;;;;;5063552;28;20021;-69
2023/01/25 02:26:50;;;;;;;49.47;22.70;;;3.80;99.90;;;;;;5069885;28;20039;-70
2023/01/25 02:29:18;;;;;;;52.17;22.85;;;3.70;99.90;;;;;;5055892;28;20024;-69
2023/01/25 02:31:46;;;;;;;54.28;24.67;;;3.70;99.90;;;;;;5063359;28;20034;-69
2023/01/25 02:34:11;;;;;;;57.08;25.33;;;3.70;99.90;;;;;;5062992;28;20032;-69
2023/01/25 02:36:37;;;;;;;55.10;24.77;;;3.60;99.90;;;;;;5064277;28;20032;-69
2023/01/25 02:39:14;;;;;;;51.35;22.95;;;3.60;99.90;;;;;;5065155;28;20029;-69
2023/01/25 02:41:42;;;;;;;53.30;24.35;;;3.60;99.90;;;;;;5070535;28;20142;-69
2023/01/25 02:44:25;;;;;;;54.22;22.85;;;3.60;99.90;;;;;;5072007;28;20104;-69
2023/01/25 02:46:52;;;;;;;51.40;22.55;;;3.60;99.90;;;;;;5072031;28;20366;-69
2023/01/25 02:49:18;;;;;;;55.63;24.15;;;3.60;99.90;;;;;;5072300;28;20021;-69
2023/01/25 02:51:46;;;;;;;55.85;25.15;;;3.50;99.90;;;;;;5072110;28;20033;-69
2023/01/25 02:54:13;;;;;;;52.53;22.55;;;3.50;99.90;;;;;;5072387;28;20020;-69
2023/01/25 02:56:40;;;;;;;56.47;23.48;;;3.50;99.90;;;;;;5064046;28;20143;-69
2023/01/25 02:59:06;;;;;;;52.95;23.42;;;3.50;99.90;;;;;;5033706;28;20029;-69
2023/01/25 03:01:34;;;;;;;53.40;23.55;;;3.50;99.90;;;;;;5052326;28;20084;-69
2023/01/25 03:04:00;;;;;;;54.85;24.48;;;3.60;99.90;;;;;;5071615;28;20024;-70
2023/01/25 03:06:25;;;;;;;50.50;21.50;;;3.60;99.90;;;;;;5065768;28;20031;-70
2023/01/25 03:08:53;;;;;;;50.95;22.73;;;3.60;99.90;;;;;;5060193;28;20369;-69
2023/01/25 03:11:18;;;;;;;54.97;25.02;;;3.60;99.90;;;;;;5072008;28;20517;-69
2023/01/25 03:13:44;;;;;;;55.75;24.15;;;3.60;99.90;;;;;;5060228;28;20490;-70
2023/01/25 03:16:11;;;;;;;54.25;23.77;;;3.60;99.90;;;;;;5055951;28;20075;-69
2023/01/25 03:18:38;;;;;;;51.05;23.20;;;3.60;99.90;;;;;;5049702;28;20045;-69
2023/01/25 03:21:12;;;;;;;54.55;22.73;;;3.60;99.90;;;;;;5037411;28;20029;-69
2023/01/25 03:23:39;;;;;;;56.08;22.30;;;3.60;99.90;;;;;;5055726;28;20491;-72
2023/01/25 03:26:10;;;;;;;52.33;23.30;;;3.60;99.90;;;;;;5040064;28;20477;-71
2023/01/25 03:28:37;;;;;;;53.40;24.35;;;3.60;99.90;;;;;;5035524;28;20021;-69
2023/01/25 03:31:03;;;;;;;56.35;23.27;;;3.50;99.90;;;;;;5035671;28;20049;-69
2023/01/25 03:33:29;;;;;;;46.67;21.33;;;3.50;99.90;;;;;;5056039;28;20127;-69
2023/01/25 03:35:55;;;;;;;53.70;24.25;;;3.40;99.90;;;;;;5065558;28;20105;-69
2023/01/25 03:38:21;;;;;;;51.33;23.27;;;3.30;99.90;;;;;;5055106;28;20025;-69
2023/01/25 03:40:47;;;;;;;53.28;22.88;;;3.20;99.90;;;;;;5055413;28;20055;-70
2023/01/25 03:43:13;;;;;;;47.30;19.88;;;3.20;99.90;;;;;;5055296;28;20143;-70
2023/01/25 03:45:39;;;;;;;53.03;22.70;;;3.10;99.90;;;;;;5054991;28;20025;-68
2023/01/25 03:48:05;;;;;;;55.65;24.55;;;2.90;99.90;;;;;;5054766;28;20033;-69
2023/01/25 03:50:31;;;;;;;54.42;23.50;;;2.90;99.90;;;;;;5055240;28;20363;-70
2023/01/25 03:53:05;;;;;;;54.00;24.63;;;2.90;99.90;;;;;;5054869;28;20076;-69
2023/01/25 03:55:34;;;;;;;57.38;24.73;;;2.90;99.90;;;;;;5036964;28;20057;-68
2023/01/25 03:58:00;;;;;;;60.05;25.05;;;3.00;99.90;;;;;;5054926;28;20037;-69
2023/01/25 04:00:25;;;;;;;59.30;25.20;;;3.10;99.90;;;;;;5054855;28;20051;-71
2023/01/25 04:02:51;;;;;;;55.28;23.15;;;3.10;99.90;;;;;;5053968;28;20074;-69
2023/01/25 04:05:17;;;;;;;58.83;23.95;;;3.10;99.90;;;;;;5054687;28;20055;-71
2023/01/25 04:07:43;;;;;;;57.33;25.52;;;3.20;99.90;;;;;;5054819;28;20032;-71
2023/01/25 04:10:09;;;;;;;56.50;24.98;;;3.20;99.90;;;;;;5054376;28;20017;-69
2023/01/25 04:12:35;;;;;;;54.88;24.60;;;3.30;99.90;;;;;;5054303;28;20041;-69
2023/01/25 04:15:01;;;;;;;56.53;25.05;;;3.30;99.90;;;;;;5054601;28;20024;-69
2023/01/25 04:17:26;;;;;;;51.83;22.17;;;3.30;99.90;;;;;;5057252;28;20044;-71
2023/01/25 04:19:53;;;;;;;53.92;24.35;;;3.20;99.90;;;;;;5074250;28;20029;-70
2023/01/25 04:22:18;;;;;;;50.05;20.88;;;3.20;99.90;;;;;;5044289;28;20031;-69
2023/01/25 04:24:44;;;;;;;53.80;22.65;;;3.10;99.90;;;;;;5062337;28;20412;-69
2023/01/25 04:27:09;;;;;;;50.80;22.20;;;3.10;99.90;;;;;;5063012;28;20029;-70
2023/01/25 04:29:35;;;;;;;51.55;22.95;;;3.00;99.90;;;;;;5061957;28;20028;-70
2023/01/25 04:32:01;;;;;;;50.70;22.80;;;3.00;99.90;;;;;;5061667;28;20538;-69
2023/01/25 04:34:26;;;;;;;51.15;21.48;;;3.00;99.90;;;;;;5053891;28;20112;-69
2023/01/25 04:36:52;;;;;;;49.20;22.02;;;3.00;99.90;;;;;;5064968;28;20564;-70
2023/01/25 04:39:18;;;;;;;48.17;21.75;;;3.10;99.90;;;;;;5065373;28;20499;-70
2023/01/25 04:41:44;;;;;;;55.53;24.40;;;3.10;99.90;;;;;;5066967;28;20469;-70
2023/01/25 04:44:09;;;;;;;50.20;22.63;;;3.10;99.90;;;;;;5072815;28;20062;-70
2023/01/25 04:46:35;;;;;;;51.10;23.30;;;3.10;99.90;;;;;;5071735;28;20099;-69
2023/01/25 04:49:00;;;;;;;47.60;20.73;;;3.20;99.90;;;;;;5070723;28;20033;-70
2023/01/25 04:51:26;;;;;;;52.42;22.42;;;3.20;99.90;;;;;;5068231;28;20060;-67
2023/01/25 04:53:52;;;;;;;53.25;22.75;;;3.10;99.90;;;;;;5068115;28;20036;-68
2023/01/25 04:56:17;;;;;;;51.88;24.00;;;3.10;99.90;;;;;;5052005;28;20418;-69
2023/01/25 04:58:43;;;;;;;53.15;21.10;;;3.10;99.90;;;;;;5072164;28;20116;-70
2023/01/25 05:01:09;;;;;;;52.45;22.23;;;3.00;99.90;;;;;;5072186;28;20065;-69
2023/01/25 05:03:34;;;;;;;51.42;22.52;;;3.00;99.90;;;;;;5040299;28;20036;-70
2023/01/25 05:06:00;;;;;;;51.05;21.48;;;2.90;99.90;;;;;;5065241;28;20025;-68
2023/01/25 05:08:25;;;;;;;50.80;19.90;;;2.90;99.90;;;;;;5064031;28;20828;-67
2023/01/25 05:10:51;;;;;;;48.88;19.45;;;2.80;99.90;;;;;;5073194;28;20465;-69
2023/01/25 05:13:16;;;;;;;53.38;21.90;;;2.70;99.90;;;;;;5056652;28;20041;-67
2023/01/25 05:15:42;;;;;;;50.63;22.25;;;2.60;99.90;;;;;;5071758;28;20037;-67
2023/01/25 05:18:08;;;;;;;55.80;23.90;;;2.40;99.90;;;;;;5073081;28;20044;-68
2023/01/25 05:20:33;;;;;;;52.38;22.80;;;2.40;99.90;;;;;;5062230;28;20365;-67
2023/01/25 05:22:59;;;;;;;53.22;21.98;;;2.40;99.90;;;;;;5067277;28;20087;-67
2023/01/25 05:28:08;;;;;;;55.63;22.42;;;2.50;99.90;;;;;;5052959;28;20120;-69
2023/01/25 05:30:34;;;;;;;54.22;22.58;;;2.50;99.90;;;;;;5066827;28;20028;-68
2023/01/25 05:33:00;;;;;;;52.83;21.77;;;2.60;99.90;;;;;;5048287;28;20048;-70
2023/01/25 05:35:25;;;;;;;52.00;22.48;;;2.60;99.90;;;;;;5070984;28;20805;-68
2023/01/25 05:37:58;;;;;;;50.92;21.45;;;2.60;99.90;;;;;;5067462;28;20032;-69
2023/01/25 05:40:24;;;;;;;49.78;21.98;;;2.70;99.90;;;;;;5061325;28;20402;-68
2023/01/25 05:42:58;;;;;;;53.13;22.05;;;2.70;99.90;;;;;;5060250;28;20024;-67
2023/01/25 05:45:24;;;;;;;49.03;20.30;;;2.80;99.90;;;;;;5069025;28;20107;-68
2023/01/25 05:47:54;;;;;;;51.97;23.00;;;2.80;99.90;;;;;;5068710;28;20535;-68
2023/01/25 05:50:21;;;;;;;51.53;21.60;;;2.80;99.90;;;;;;5066390;28;20016;-67
2023/01/25 05:52:46;;;;;;;52.17;22.30;;;2.70;99.90;;;;;;5072189;28;20080;-67
2023/01/25 05:55:12;;;;;;;54.60;22.38;;;2.70;99.90;;;;;;5067977;28;20788;-68
2023/01/25 05:57:38;;;;;;;53.78;19.67;;;2.70;99.90;;;;;;5068288;28;20062;-69
2023/01/25 06:00:05;;;;;;;59.45;24.25;;;2.60;99.90;;;;;;5058501;28;20028;-67
2023/01/25 06:02:31;;;;;;;60.05;25.10;;;2.50;99.90;;;;;;5062132;28;20398;-67
2023/01/25 06:04:56;;;;;;;51.90;23.20;;;2.50;99.90;;;;;;5065288;28;20029;-67
2023/01/25 06:07:22;;;;;;;59.92;26.67;;;2.40;99.90;;;;;;5070032;28;20081;-69
2023/01/25 06:09:48;;;;;;;53.78;21.30;;;2.50;99.90;;;;;;5076688;28;20037;-70
2023/01/25 06:12:14;;;;;;;55.50;24.40;;;2.50;99.90;;;;;;5072323;28;20546;-69
2023/01/25 06:14:40;;;;;;;56.65;22.60;;;2.40;99.90;;;;;;5066027;28;20028;-67
2023/01/25 06:17:07;;;;;;;57.30;24.98;;;2.40;99.90;;;;;;5053050;28;20051;-68
2023/01/25 06:19:32;;;;;;;51.47;21.60;;;2.40;99.90;;;;;;5072452;28;20103;-67
2023/01/25 06:21:58;;;;;;;56.42;23.35;;;2.30;99.90;;;;;;5072421;28;20071;-68
2023/01/25 06:24:24;;;;;;;53.78;22.98;;;2.30;99.90;;;;;;5066449;28;20028;-68
2023/01/25 06:26:50;;;;;;;64.03;22.98;;;2.30;99.90;;;;;;5072641;28;20128;-67
2023/01/25 06:29:16;;;;;;;55.88;23.45;;;2.30;99.90;;;;;;5053971;28;20524;-67
2023/01/25 06:31:41;;;;;;;63.03;23.70;;;2.30;99.90;;;;;;5072573;28;20123;-67
2023/01/25 06:34:08;;;;;;;53.10;23.23;;;2.30;99.90;;;;;;5053829;28;20039;-68
2023/01/25 06:36:34;;;;;;;62.78;24.25;;;2.30;99.90;;;;;;5071556;28;20020;-68
2023/01/25 06:38:59;;;;;;;57.92;26.00;;;2.30;99.90;;;;;;5072338;28;20122;-68
2023/01/25 06:41:25;;;;;;;57.60;23.70;;;2.30;99.90;;;;;;5071747;28;20036;-68
2023/01/25 06:43:52;;;;;;;52.50;21.95;;;2.30;99.90;;;;;;5072461;28;20035;-69
2023/01/25 06:46:18;;;;;;;56.55;22.83;;;2.30;99.90;;;;;;5072258;28;20029;-69
2023/01/25 06:48:44;;;;;;;58.13;23.88;;;2.30;99.90;;;;;;5075964;28;20107;-69
2023/01/25 06:51:11;;;;;;;53.08;23.13;;;2.20;99.90;;;;;;5058350;28;20449;-69
2023/01/25 06:53:39;;;;;;;55.08;21.13;;;2.20;99.90;;;;;;5075698;28;20036;-69
2023/01/25 06:56:17;;;;;;;55.88;23.50;;;2.20;99.90;;;;;;5076003;28;20017;-69
2023/01/25 06:58:44;;;;;;;53.95;22.45;;;2.20;99.90;;;;;;5075616;28;20045;-69
2023/01/25 07:01:25;;;;;;;58.15;23.98;;;2.30;99.90;;;;;;5076099;28;20028;-69
2023/01/25 07:03:53;;;;;;;52.05;20.60;;;2.20;99.90;;;;;;5075763;28;20469;-70
2023/01/25 07:06:19;;;;;;;58.20;24.08;;;2.20;99.90;;;;;;5075040;28;20534;-69
2023/01/25 07:08:45;;;;;;;60.20;25.38;;;2.10;99.90;;;;;;5076203;28;20021;-69
2023/01/25 07:11:15;;;;;;;58.08;24.60;;;2.20;99.90;;;;;;5075058;28;20372;-70
2023/01/25 07:13:42;;;;;;;60.67;25.20;;;2.20;99.90;;;;;;5075254;28;20047;-69
2023/01/25 07:16:11;;;;;;;61.97;24.02;;;2.20;99.90;;;;;;5075850;28;20139;-69
2023/01/25 07:18:37;;;;;;;56.63;23.98;;;2.30;99.90;;;;;;5074563;28;20458;-69
2023/01/25 07:21:12;;;;;;;60.28;23.02;;;2.30;99.90;;;;;;5075243;28;20036;-69
2023/01/25 07:23:38;;;;;;;58.08;24.50;;;2.30;99.90;;;;;;5075229;28;20108;-69
2023/01/25 07:26:05;;;;;;;58.58;24.08;;;2.30;99.90;;;;;;5075446;28;20100;-69
2023/01/25 07:28:31;;;;;;;68.95;23.95;;;2.30;99.90;;;;;;5074709;28;20028;-70
2023/01/25 07:31:05;;;;;;;57.88;23.85;;;2.30;99.90;;;;;;5075427;28;20090;-68
2023/01/25 07:33:31;;;;;;;58.88;23.90;;;2.20;99.90;;;;;;5074822;28;20068;-67
2023/01/25 07:36:05;;;;;;;57.72;23.38;;;2.20;99.90;;;;;;5055897;28;20384;-68
2023/01/25 07:38:31;;;;;;;56.88;23.13;;;2.20;99.90;;;;;;5075304;28;20487;-67
2023/01/25 07:40:56;;;;;;;55.08;23.35;;;2.20;99.90;;;;;;5075438;28;20028;-68
2023/01/25 07:43:23;;;;;;;59.50;25.75;;;2.20;99.90;;;;;;5075454;28;20056;-68
2023/01/25 07:45:48;;;;;;;61.03;25.38;;;2.20;99.90;;;;;;5075063;28;20043;-68
2023/01/25 07:48:16;;;;;;;57.05;23.45;;;2.20;99.90;;;;;;5074560;28;20033;-69
2023/01/25 07:50:45;;;;;;;54.80;24.08;;;2.20;99.90;;;;;;5055927;28;20027;-69
2023/01/25 07:56:48;;;;;;;59.92;22.83;;;2.20;99.90;;;;;;5067032;28;20051;-69
2023/01/25 07:59:27;;;;;;;63.20;26.30;;;2.20;99.90;;;;;;5055932;28;20060;-69
2023/01/25 08:01:57;;;;;;;58.72;22.73;;;2.20;99.90;;;;;;5074353;28;20032;-69
2023/01/25 08:04:24;;;;;;;51.28;18.95;;;2.20;99.90;;;;;;5074451;28;20024;-71
2023/01/25 08:07:13;;;;;;;58.03;24.58;;;2.20;99.90;;;;;;5052266;28;20037;-72
2023/01/25 08:10:05;;;;;;;61.65;26.60;;;2.20;99.90;;;;;;5073936;28;20410;-70
2023/01/25 08:12:33;;;;;;;64.07;24.25;;;2.20;99.90;;;;;;5055886;28;20044;-71
2023/01/25 08:14:59;;;;;;;63.33;26.45;;;2.20;99.90;;;;;;5074658;28;20068;-72
2023/01/25 08:17:30;;;;;;;62.17;25.27;;;2.20;99.90;;;;;;5070630;28;20057;-70
2023/01/25 08:19:57;;;;;;;64.85;25.42;;;2.20;99.90;;;;;;5054316;28;20483;-69
2023/01/25 08:22:23;;;;;;;70.00;26.52;;;2.20;99.90;;;;;;5039939;28;20025;-70
2023/01/25 08:24:49;;;;;;;61.63;25.67;;;2.20;99.90;;;;;;5050094;28;20037;-72
2023/01/25 08:27:14;;;;;;;58.42;23.88;;;2.20;99.90;;;;;;5052091;28;20036;-69
2023/01/25 08:29:40;;;;;;;64.72;26.52;;;2.20;99.90;;;;;;5053626;28;20028;-69
2023/01/25 08:32:06;;;;;;;58.17;24.95;;;2.30;99.90;;;;;;5054465;28;20080;-69
2023/01/25 08:34:32;;;;;;;67.60;26.13;;;2.40;99.90;;;;;;5049239;28;20018;-69
2023/01/25 08:36:58;;;;;;;64.40;26.77;;;2.30;99.90;;;;;;5034437;28;20032;-71
2023/01/25 08:39:24;;;;;;;64.05;21.83;;;2.30;99.90;;;;;;5037485;28;20021;-70
2023/01/25 08:41:50;;;;;;;61.17;24.13;;;2.20;99.90;;;;;;5054066;28;20061;-72
2023/01/25 08:44:15;;;;;;;64.65;26.73;;;2.10;99.90;;;;;;5039036;28;20120;-72
2023/01/25 08:46:41;;;;;;;63.58;25.23;;;2.00;99.90;;;;;;5034350;28;20033;-72
2023/01/25 08:49:09;;;;;;;54.22;23.83;;;2.00;99.90;;;;;;5046269;28;20086;-71
2023/01/25 08:51:35;;;;;;;60.65;25.30;;;2.10;99.90;;;;;;5042950;28;20547;-69
2023/01/25 08:54:02;;;;;;;54.78;23.15;;;2.00;99.90;;;;;;5053470;28;20040;-72
2023/01/25 08:56:27;;;;;;;64.05;25.38;;;2.00;99.90;;;;;;5043055;28;20056;-72
2023/01/25 08:58:53;;;;;;;65.57;27.30;;;2.10;99.90;;;;;;5033612;28;20512;-71
2023/01/25 09:01:19;;;;;;;60.80;24.02;;;2.10;99.90;;;;;;5041735;28;20457;-73
2023/01/25 09:03:47;;;;;;;63.10;25.40;;;2.20;99.90;;;;;;5053961;28;20044;-69
2023/01/25 09:06:14;;;;;;;62.60;27.10;;;2.30;99.90;;;;;;5046175;28;20013;-72
2023/01/25 09:08:39;;;;;;;62.53;25.85;;;2.30;99.90;;;;;;5034090;28;20112;-68
2023/01/25 09:11:13;;;;;;;55.92;22.00;;;2.30;99.90;;;;;;5037868;28;20103;-69
2023/01/25 09:13:42;;;;;;;60.53;25.27;;;2.30;99.90;;;;;;5053619;28;20047;-67
2023/01/25 09:16:10;;;;;;;66.10;25.35;;;2.40;99.90;;;;;;5047952;28;20024;-71
2023/01/25 09:18:37;;;;;;;64.47;26.30;;;2.40;99.90;;;;;;5058393;28;20060;-69
2023/01/25 09:21:12;;;;;;;69.20;28.33;;;2.40;99.90;;;;;;5054694;28;20097;-68
2023/01/25 09:23:38;;;;;;;61.70;25.48;;;2.40;99.90;;;;;;5073212;28;20028;-68
2023/01/25 09:26:04;;;;;;;65.78;27.00;;;2.50;99.90;;;;;;5072598;28;20029;-68
2023/01/25 09:28:31;;;;;;;63.38;24.92;;;2.60;99.90;;;;;;5073382;28;20036;-70
2023/01/25 09:31:05;;;;;;;57.13;22.77;;;2.60;99.90;;;;;;5072733;28;20025;-71
2023/01/25 09:33:33;;;;;;;66.07;27.63;;;2.60;99.90;;;;;;5072486;28;20036;-68
2023/01/25 09:35:59;;;;;;;60.95;23.50;;;2.50;99.90;;;;;;5072394;28;20032;-68
2023/01/25 09:38:25;;;;;;;70.88;26.52;;;2.50;99.90;;;;;;5073264;28;20029;-71
2023/01/25 09:41:30;;;;;;;64.55;25.52;;;2.50;99.90;;;;;;5072698;28;20040;-70
2023/01/25 09:44:20;;;;;;;64.35;23.35;;;2.50;99.90;;;;;;5073009;28;20059;-69
2023/01/25 09:46:51;;;;;;;62.53;23.48;;;2.50;99.90;;;;;;5061644;28;20033;-69
2023/01/25 09:50:10;;;;;;;63.77;27.10;;;2.40;99.90;;;;;;5051744;28;20377;-70
2023/01/25 09:52:56;;;;;;;64.50;25.42;;;2.40;99.90;;;;;;5052923;28;20044;-70
2023/01/25 09:55:26;;;;;;;65.07;27.38;;;2.50;99.90;;;;;;5062788;28;20047;-67
2023/01/25 09:57:55;;;;;;;68.13;26.48;;;2.60;99.90;;;;;;5072477;28;20396;-70
2023/01/25 10:00:24;;;;;;;60.42;25.35;;;2.70;99.90;;;;;;5072317;28;20040;-69
2023/01/25 10:03:22;;;;;;;70.93;27.52;;;2.70;99.90;;;;;;5072631;28;20029;-69
2023/01/25 10:05:55;;;;;;;67.32;27.90;;;2.70;99.90;;;;;;5043644;28;20044;-70
2023/01/25 10:08:31;;;;;;;67.35;28.15;;;2.70;99.90;;;;;;5064719;28;20074;-69
2023/01/25 10:11:24;;;;;;;64.95;26.83;;;2.80;99.90;;;;;;5055590;28;20029;-68
2023/01/25 10:13:50;;;;;;;59.55;26.67;;;2.90;99.90;;;;;;5072200;28;20040;-70
2023/01/25 10:16:33;;;;;;;70.55;27.58;;;2.90;99.90;;;;;;5072475;28;20037;-70
2023/01/25 10:19:11;;;;;;;63.40;23.20;;;2.90;99.90;;;;;;5072285;28;20051;-69
2023/01/25 10:21:53;;;;;;;53.42;21.90;;;2.90;99.90;;;;;;5071788;28;20036;-68
2023/01/25 10:24:46;;;;;;;60.17;25.10;;;3.00;99.90;;;;;;5072375;28;20040;-68
2023/01/25 10:27:38;;;;;;;59.67;23.33;;;2.90;99.90;;;;;;5064296;28;20031;-71
2023/01/25 10:30:26;;;;;;;59.72;26.75;;;2.80;99.90;;;;;;5052415;28;20021;-70
2023/01/25 10:32:56;;;;;;;52.28;20.30;;;2.80;99.90;;;;;;5070118;28;20071;-70
2023/01/25 10:35:26;;;;;;;56.10;23.52;;;2.80;99.90;;;;;;5071266;28;20063;-70
2023/01/25 10:37:52;;;;;;;57.67;24.70;;;2.80;99.90;;;;;;5072116;28;20056;-70
2023/01/25 10:40:25;;;;;;;62.03;25.27;;;2.70;99.90;;;;;;5069188;28;20063;-70
2023/01/25 10:43:00;;;;;;;65.38;26.60;;;2.80;99.90;;;;;;5068553;28;20036;-70
2023/01/25 10:45:26;;;;;;;59.08;23.92;;;2.80;99.90;;;;;;5071892;28;20032;-70
2023/01/25 10:47:56;;;;;;;68.45;27.45;;;2.90;99.90;;;;;;5064700;28;20083;-69
2023/01/25 10:50:46;;;;;;;72.03;28.65;;;2.90;99.90;;;;;;5059614;28;20040;-68
2023/01/25 10:53:26;;;;;;;48.92;21.45;;;2.90;99.90;;;;;;5053463;28;20033;-69
2023/01/25 10:56:02;;;;;;;55.10;22.63;;;2.90;99.90;;;;;;5065845;28;20102;-71
2023/01/25 10:58:35;;;;;;;63.42;26.83;;;2.80;99.90;;;;;;5072478;28;20032;-67
2023/01/25 11:01:05;;;;;;;67.97;25.92;;;2.90;99.90;;;;;;5072378;28;20115;-69
2023/01/25 11:03:39;;;;;;;67.55;28.63;;;2.90;99.90;;;;;;5071923;28;20036;-67
2023/01/25 11:06:06;;;;;;;69.28;27.38;;;2.90;99.90;;;;;;5064676;28;20083;-69
2023/01/25 11:08:33;;;;;;;64.80;26.40;;;3.00;99.90;;;;;;5052291;28;20117;-68
2023/01/25 11:11:30;;;;;;;62.80;26.52;;;3.10;99.90;;;;;;5052316;28;20115;-67
2023/01/25 11:13:56;;;;;;;70.05;28.73;;;3.10;99.90;;;;;;5051387;28;20046;-71
2023/01/25 11:16:27;;;;;;;68.05;27.02;;;3.30;99.90;;;;;;5052249;28;20040;-70
2023/01/25 11:18:55;;;;;;;58.13;24.20;;;3.40;99.90;;;;;;5051824;28;20052;-70
2023/01/25 11:21:28;;;;;;;68.20;28.38;;;3.40;99.90;;;;;;5052436;28;20033;-70
2023/01/25 11:23:58;;;;;;;58.15;26.08;;;3.40;99.90;;;;;;5052001;28;20108;-69
2023/01/25 11:26:23;;;;;;;65.03;26.35;;;3.40;99.90;;;;;;5052161;28;20036;-68
2023/01/25 11:28:49;;;;;;;60.88;26.35;;;3.40;99.90;;;;;;5052293;28;20033;-70
2023/01/25 11:31:21;;;;;;;67.22;26.42;;;3.50;99.90;;;;;;5051748;28;20033;-68
2023/01/25 11:33:46;;;;;;;66.82;29.10;;;3.50;99.90;;;;;;5052539;28;20682;-71
2023/01/25 11:36:38;;;;;;;58.33;25.67;;;3.60;99.90;;;;;;5055712;28;20037;-69
2023/01/25 11:39:22;;;;;;;62.88;24.42;;;3.60;99.90;;;;;;5055763;28;20071;-68
2023/01/25 11:42:05;;;;;;;59.50;24.00;;;3.60;99.90;;;;;;5056500;28;20021;-69
2023/01/25 11:45:00;;;;;;;67.03;27.08;;;3.60;99.90;;;;;;5075789;28;20055;-70
2023/01/25 11:48:01;;;;;;;61.88;26.00;;;3.60;99.90;;;;;;5075090;28;20104;-67
2023/01/25 11:50:32;;;;;;;58.40;23.52;;;3.70;99.90;;;;;;5075548;28;20101;-72
2023/01/25 11:53:17;;;;;;;62.42;24.58;;;3.70;99.90;;;;;;5075597;28;20465;-67
2023/01/25 11:55:57;;;;;;;59.40;23.85;;;3.70;99.90;;;;;;5075200;28;20033;-69
2023/01/25 11:58:42;;;;;;;60.72;24.75;;;3.60;99.90;;;;;;5075450;28;20020;-68
2023/01/25 12:01:55;;;;;;;62.45;27.33;;;3.60;99.90;;;;;;5075146;28;20040;-68
2023/01/25 12:04:44;;;;;;;63.15;28.02;;;3.60;99.90;;;;;;5075126;28;20054;-69
2023/01/25 12:07:19;;;;;;;62.55;25.95;;;3.70;99.90;;;;;;5075679;28;20364;-70
2023/01/25 12:09:53;;;;;;;63.63;27.88;;;3.80;99.90;;;;;;5075146;28;20024;-70
2023/01/25 12:12:31;;;;;;;59.30;24.85;;;3.90;99.90;;;;;;5074955;28;20456;-68
2023/01/25 12:15:09;;;;;;;59.90;27.73;;;3.90;99.90;;;;;;5095318;28;20028;-68
2023/01/25 12:17:56;;;;;;;59.75;25.38;;;3.80;99.90;;;;;;5095102;28;20040;-69
2023/01/25 12:21:05;;;;;;;60.28;28.35;;;3.80;99.90;;;;;;5095194;28;20028;-70
2023/01/25 12:23:53;;;;;;;60.22;25.35;;;3.80;99.90;;;;;;5095267;28;20074;-68
2023/01/25 12:26:25;;;;;;;57.75;21.55;;;3.70;99.90;;;;;;5095113;28;20066;-68
2023/01/25 12:29:01;;;;;;;61.78;25.92;;;3.70;99.90;;;;;;5094906;28;20020;-70
2023/01/25 12:31:47;;;;;;;68.47;28.42;;;3.70;99.90;;;;;;5094952;28;20062;-71
2023/01/25 12:34:31;;;;;;;51.80;22.33;;;3.70;99.90;;;;;;5094561;28;20036;-70
2023/01/25 12:37:04;;;;;;;51.38;22.42;;;3.70;99.90;;;;;;5054884;28;20043;-70
2023/01/25 12:40:05;;;;;;;55.53;24.27;;;3.70;99.90;;;;;;5054120;28;20033;-67
2023/01/25 12:42:45;;;;;;;68.78;27.92;;;3.70;99.90;;;;;;5053387;28;20033;-68
2023/01/25 12:45:20;;;;;;;66.20;28.35;;;3.60;99.90;;;;;;5074407;28;20025;-69
2023/01/25 12:48:24;;;;;;;59.13;23.85;;;3.60;99.90;;;;;;5073645;28;20120;-69
2023/01/25 12:50:58;;;;;;;67.88;28.85;;;3.60;99.90;;;;;;5074283;28;20031;-68
2023/01/25 12:53:28;;;;;;;61.60;25.65;;;3.50;99.90;;;;;;5074463;28;20055;-69
2023/01/25 12:55:56;;;;;;;67.40;30.70;;;3.50;99.90;;;;;;5074149;28;20154;-68
2023/01/25 12:58:50;;;;;;;52.80;23.98;;;3.60;99.90;;;;;;5073977;28;20032;-69